.
WxDataArchive / Data Records for 2014-07-26
2014-07-25 July 2014 2014-07-27

Data Records for Saturday, 26 July 2014

Time	Temp	Chill	HIndex	Humid	Dewpt	 Wind 	HiWind	WindDir	Rain 	Barom
-----	----	-----	------	-----	-----	------	------	-------	-----	-----
00:00	67.3	67.3	67.3	72	58.0	0	0	---	0.00	29.941 
00:05	67.1	67.1	67.1	72	57.8	0	0	---	0.00	29.941 
00:10	67.1	67.1	67.1	73	58.1	0	0	---	0.00	29.941 
00:15	66.9	66.9	66.9	73	58.0	0	0	---	0.00	29.940 
00:20	66.9	66.9	66.9	73	58.0	0	0	---	0.00	29.940 
00:25	66.8	66.8	66.8	73	57.9	0	0	---	0.00	29.940 
00:30	66.8	66.8	66.8	73	57.9	0	0	---	0.00	29.941 
00:35	66.8	66.8	66.8	74	58.2	0	0	---	0.00	29.941 
00:40	66.6	66.6	66.6	74	58.0	0	0	---	0.00	29.941 
00:45	66.4	66.4	66.4	74	57.9	0	0	---	0.00	29.946 
00:50	66.3	66.3	66.3	74	57.8	0	0	---	0.00	29.946 
00:55	66.1	66.1	66.1	74	57.6	0	0	---	0.00	29.946 
01:00	66.0	66.0	66.0	74	57.5	0	0	---	0.00	29.942 
01:05	65.8	65.8	65.8	75	57.6	0	0	---	0.00	29.942 
01:10	65.6	65.6	65.6	75	57.5	0	0	---	0.00	29.942 
01:15	65.6	65.6	65.6	76	57.8	0	0	---	0.00	29.938 
01:20	65.5	65.5	65.5	76	57.7	0	0	---	0.00	29.938 
01:25	65.3	65.3	65.3	76	57.5	0	0	---	0.00	29.938 
01:30	65.2	65.2	65.2	76	57.4	0	0	---	0.00	29.937 
01:35	65.0	65.0	65.0	77	57.6	0	0	---	0.00	29.937 
01:40	64.8	64.8	64.8	77	57.4	0	0	---	0.00	29.937 
01:45	64.8	64.8	64.8	77	57.4	0	0	---	0.00	29.934 
01:50	64.7	64.7	64.7	77	57.3	0	0	---	0.00	29.934 
01:55	64.5	64.5	64.5	77	57.1	0	0	---	0.00	29.934 
02:00	64.3	64.3	64.3	77	56.9	0	0	---	0.00	29.933 
02:05	64.2	64.2	64.2	78	57.2	0	0	---	0.00	29.933 
02:10	64.2	64.2	64.2	78	57.2	0	0	---	0.00	29.933 
02:15	64.3	64.3	64.3	78	57.3	0	0	---	0.00	29.928 
02:20	64.3	64.3	64.3	78	57.3	0	0	---	0.00	29.928 
02:25	64.5	64.5	64.5	78	57.5	0	0	---	0.00	29.928 
02:30	64.7	64.7	64.7	78	57.7	0	0	---	0.00	29.923 
02:35	64.8	64.8	64.8	78	57.8	0	0	---	0.00	29.923 
02:40	64.8	64.8	64.8	77	57.4	0	0	---	0.00	29.923 
02:45	64.8	64.8	64.8	77	57.4	0	0	---	0.00	29.913 
02:50	64.8	64.8	64.8	77	57.4	0	0	---	0.00	29.913 
02:55	64.8	64.8	64.8	78	57.8	0	0	---	0.00	29.913 
03:00	64.7	64.7	64.7	78	57.7	0	0	---	0.00	29.908 
03:05	64.3	64.3	64.3	79	57.6	0	0	---	0.00	29.908 
03:10	64.2	64.2	64.2	80	57.9	0	0	---	0.00	29.908 
03:15	63.9	63.9	63.9	81	57.9	0	0	---	0.00	29.907 
03:20	63.5	63.5	63.5	81	57.6	0	0	---	0.00	29.907 
03:25	63.2	63.2	63.2	81	57.3	0	0	---	0.00	29.907 
03:30	62.9	62.9	62.9	82	57.3	0	0	---	0.00	29.904 
03:35	62.6	62.6	62.6	83	57.4	0	0	---	0.00	29.904 
03:40	62.3	62.3	62.3	84	57.4	0	0	---	0.00	29.904 
03:45	62.1	62.1	62.1	84	57.2	0	0	---	0.00	29.902 
03:50	62.0	62.0	62.0	84	57.1	0	0	---	0.00	29.902 
03:55	61.8	61.8	61.8	84	56.9	0	0	---	0.00	29.902 
04:00	61.6	61.6	61.6	85	57.0	0	0	---	0.00	29.903 
04:05	61.5	61.5	61.5	85	56.9	0	0	---	0.00	29.903 
04:10	61.3	61.3	61.3	85	56.7	0	0	---	0.00	29.903 
04:15	61.3	61.3	61.3	86	57.1	0	0	---	0.00	29.896 
04:20	61.3	61.3	61.3	87	57.4	0	0	---	0.00	29.896 
04:25	61.5	61.5	61.5	87	57.6	0	0	---	0.00	29.896 
04:30	61.5	61.5	61.5	87	57.6	0	0	---	0.00	29.893 
04:35	61.6	61.6	61.6	87	57.7	0	0	---	0.00	29.893 
04:40	61.8	61.8	61.8	87	57.9	0	0	---	0.00	29.893 
04:45	61.8	61.8	61.8	87	57.9	0	0	---	0.00	29.886 
04:50	62.0	62.0	62.0	87	58.1	0	0	---	0.00	29.886 
04:55	62.0	62.0	62.0	87	58.1	0	0	---	0.00	29.886 
05:00	62.1	62.1	62.1	87	58.2	0	0	---	0.00	29.883 
05:05	62.3	62.3	62.3	87	58.4	0	0	---	0.00	29.883 
05:10	62.3	62.3	62.3	87	58.4	0	0	---	0.00	29.883 
05:15	62.4	62.4	62.4	87	58.5	0	0	---	0.00	29.883 
05:20	62.6	62.6	62.6	87	58.7	0	0	---	0.00	29.883 
05:25	62.6	62.6	62.6	86	58.3	0	0	---	0.00	29.883 
05:30	62.7	62.7	62.7	86	58.4	0	0	---	0.00	29.881 
05:35	62.6	62.6	62.6	86	58.3	0	0	---	0.00	29.881 
05:40	62.4	62.4	62.4	86	58.2	0	0	---	0.00	29.881 
05:45	62.3	62.3	62.3	86	58.1	0	0	---	0.00	29.884 
05:50	62.1	62.1	62.1	86	57.9	0	0	---	0.00	29.884 
05:55	62.0	62.0	62.0	86	57.8	0	0	---	0.00	29.884 
06:00	61.8	61.8	61.8	86	57.6	0	0	---	0.00	29.882 
06:05	61.6	61.6	61.6	87	57.7	0	0	---	0.00	29.882 
06:10	61.5	61.5	61.5	87	57.6	0	0	---	0.00	29.882 
06:15	61.5	61.5	61.5	87	57.6	0	0	---	0.00	29.882 
06:20	61.3	61.3	61.3	88	57.7	0	0	---	0.00	29.882 
06:25	61.2	61.2	61.2	88	57.6	0	0	---	0.00	29.882 
06:30	61.2	61.2	61.2	88	57.6	0	0	---	0.00	29.881 
06:35	61.2	61.2	61.2	88	57.6	0	0	---	0.00	29.881 
06:40	61.2	61.2	61.2	89	57.9	0	0	---	0.00	29.881 
06:45	61.2	61.2	61.2	89	57.9	0	0	---	0.00	29.880 
06:50	61.2	61.2	61.2	89	57.9	0	1	292	0.00	29.880 
06:55	61.2	61.2	61.2	89	57.9	0	0	---	0.00	29.880 
07:00	61.3	61.3	61.3	90	58.3	0	0	---	0.00	29.879 
07:05	61.3	61.3	61.3	90	58.3	0	0	---	0.00	29.879 
07:10	61.5	61.5	61.5	90	58.5	0	0	---	0.00	29.879 
07:15	61.6	61.6	61.6	90	58.6	0	0	---	0.00	29.870 
07:20	61.8	61.8	61.8	90	58.8	0	0	---	0.00	29.870 
07:25	62.1	62.1	62.1	90	59.1	0	0	---	0.00	29.870 
07:30	62.3	62.3	62.3	90	59.3	0	0	---	0.00	29.874 
07:35	62.6	62.6	62.6	90	59.6	0	0	---	0.00	29.874 
07:40	63.1	63.1	63.1	89	59.8	0	0	---	0.00	29.874 
07:45	63.5	63.5	63.5	89	60.2	0	0	---	0.00	29.872 
07:50	64.2	64.2	64.2	88	60.6	0	0	---	0.00	29.872 
07:55	65.0	65.0	65.0	86	60.7	0	1	90	0.00	29.872 
08:00	66.0	66.0	66.0	84	61.0	0	1	90	0.00	29.873 
08:05	66.8	66.8	66.8	82	61.1	0	1	90	0.00	29.873 
08:10	67.4	67.4	67.4	81	61.4	0	0	---	0.00	29.873 
08:15	68.3	68.3	68.3	80	61.9	0	1	90	0.00	29.876 
08:20	69.1	69.1	69.1	78	61.9	0	0	---	0.00	29.876 
08:25	69.8	69.8	69.8	75	61.5	0	2	112	0.00	29.876 
08:30	69.9	69.9	69.9	75	61.6	0	1	112	0.00	29.875 
08:35	70.1	70.1	70.1	75	61.8	0	2	112	0.00	29.875 
08:40	70.4	70.4	70.4	74	61.7	0	1	112	0.00	29.875 
08:45	70.3	70.3	70.3	73	61.2	0	1	112	0.00	29.874 
08:50	70.1	70.1	70.1	75	61.8	0	1	112	0.00	29.874 
08:55	70.3	70.3	70.3	75	62.0	0	0	---	0.00	29.874 
09:00	70.4	70.4	70.4	74	61.7	0	3	112	0.00	29.873 
09:05	70.8	70.8	70.8	74	62.1	0	1	112	0.00	29.873 
09:10	70.9	70.9	70.9	73	61.8	0	2	112	0.00	29.873 
09:15	70.9	70.9	70.9	73	61.8	0	1	112	0.00	29.876 
09:20	71.1	71.1	71.1	72	61.6	0	1	112	0.00	29.876 
09:25	71.1	71.1	71.1	73	62.0	0	1	112	0.00	29.876 
09:30	71.5	71.5	71.5	72	62.0	0	1	112	0.00	29.876 
09:35	71.6	71.6	71.6	72	62.1	0	1	112	0.00	29.876 
09:40	71.8	71.8	71.8	71	61.9	0	1	112	0.00	29.876 
09:45	71.8	71.8	71.8	71	61.9	0	1	112	0.00	29.873 
09:50	71.8	71.8	71.8	72	62.3	0	5	112	0.00	29.873 
09:55	72.1	72.1	72.1	71	62.2	0	1	112	0.00	29.873 
10:00	72.7	72.7	72.7	70	62.3	0	2	112	0.00	29.874 
10:05	72.7	72.7	72.7	70	62.3	0	2	225	0.00	29.874 
10:10	73.0	73.0	73.0	70	62.6	0	1	225	0.00	29.874 
10:15	73.3	73.3	73.3	69	62.5	0	1	225	0.00	29.872 
10:20	73.2	73.2	73.2	69	62.4	0	1	225	0.00	29.872 
10:25	73.3	73.3	73.3	69	62.5	0	2	225	0.00	29.872 
10:30	73.5	73.5	73.5	69	62.7	1	3	225	0.00	29.865 
10:35	74.2	74.2	74.2	68	62.9	0	2	225	0.00	29.865 
10:40	75.3	75.3	77.2	67	63.6	0	1	225	0.00	29.865 
10:45	76.1	76.1	78.0	64	63.0	1	2	225	0.00	29.850 
10:50	76.8	76.8	78.6	64	63.7	0	3	112	0.00	29.850 
10:55	77.0	77.0	78.8	63	63.4	0	1	225	0.00	29.850 
11:00	77.2	77.2	79.0	63	63.6	0	2	225	0.00	29.854 
11:05	77.0	77.0	78.8	63	63.4	0	2	225	0.00	29.854 
11:10	77.0	77.0	78.8	64	63.9	0	2	225	0.00	29.854 
11:15	76.8	76.8	78.6	63	63.2	0	1	225	0.00	29.858 
11:20	77.0	77.0	78.8	64	63.9	0	1	225	0.00	29.858 
11:25	77.2	77.2	79.0	63	63.6	0	1	225	0.00	29.858 
11:30	77.2	77.2	79.0	63	63.6	0	1	225	0.00	29.856 
11:35	77.2	77.2	79.0	64	64.1	0	1	225	0.00	29.856 
11:40	77.7	77.7	79.5	63	64.1	0	1	225	0.00	29.856 
11:45	78.3	78.3	80.1	62	64.2	1	2	225	0.00	29.846 
11:50	78.6	78.6	80.3	61	64.0	1	3	202	0.00	29.846 
11:55	78.8	78.8	80.5	60	63.7	1	3	158	0.00	29.846 
12:00	79.0	79.0	80.8	61	64.4	1	3	112	0.00	29.840 
12:05	79.6	79.6	81.4	61	64.9	0	2	112	0.00	29.840 
12:10	80.3	80.3	82.1	59	64.6	0	2	112	0.00	29.840 
12:15	80.3	80.3	81.9	58	64.2	1	3	112	0.00	29.836 
12:20	80.5	80.5	82.3	59	64.8	0	1	112	0.00	29.836 
12:25	80.7	80.7	82.7	60	65.5	0	2	112	0.00	29.836 
12:30	80.7	80.7	82.5	59	65.0	0	1	112	0.00	29.839 
12:35	80.7	80.7	82.5	59	65.0	0	2	112	0.00	29.839 
12:40	80.9	80.9	82.8	59	65.2	0	2	112	0.00	29.839 
12:45	80.9	80.9	82.8	59	65.2	0	2	112	0.00	29.834 
12:50	80.5	80.5	82.4	60	65.3	0	2	112	0.00	29.834 
12:55	80.7	80.7	82.5	59	65.0	1	3	112	0.00	29.834 
13:00	81.2	81.2	83.2	59	65.5	0	1	112	0.00	29.826 
13:05	82.0	82.0	84.2	59	66.2	0	2	112	0.00	29.826 
13:10	82.2	82.2	84.3	58	65.9	1	2	112	0.00	29.826 
13:15	82.8	82.8	85.2	58	66.5	0	2	112	0.00	29.816 
13:20	83.0	83.0	85.3	57	66.2	1	2	112	0.00	29.816 
13:25	83.0	83.0	85.3	57	66.2	1	5	112	0.00	29.816 
13:30	82.4	82.4	84.8	59	66.6	1	3	90	0.00	29.819 
13:35	82.2	82.2	84.7	60	66.9	0	2	135	0.00	29.819 
13:40	81.8	81.8	84.1	60	66.5	1	3	135	0.00	29.819 
13:45	81.6	81.6	84.0	61	66.8	0	2	135	0.00	29.814 
13:50	81.2	81.2	83.6	62	66.9	0	2	135	0.00	29.814 
13:55	80.9	80.9	83.2	62	66.6	0	2	135	0.00	29.814 
14:00	80.3	80.3	82.7	64	67.0	1	2	135	0.00	29.809 
14:05	80.1	80.1	82.4	64	66.8	1	5	112	0.00	29.809 
14:10	79.9	79.9	82.2	65	67.1	1	4	112	0.00	29.809 
14:15	80.1	80.1	82.5	65	67.2	1	4	112	0.00	29.793 
14:20	80.5	80.5	83.1	65	67.6	1	3	112	0.00	29.793 
14:25	80.7	80.7	83.4	65	67.8	0	3	112	0.00	29.793 
14:30	80.5	80.5	83.1	65	67.6	1	3	292	0.00	29.789 
14:35	80.5	80.5	83.1	65	67.6	1	4	315	0.00	29.789 
14:40	80.9	80.9	83.7	65	68.0	1	3	45	0.00	29.789 
14:45	80.7	80.7	83.4	65	67.8	1	3	45	0.00	29.785 
14:50	80.5	80.5	83.2	66	68.1	0	2	315	0.00	29.785 
14:55	80.1	80.1	82.6	66	67.7	1	3	248	0.00	29.785 
15:00	79.9	79.9	82.3	66	67.5	1	3	248	0.00	29.776 
15:05	79.6	79.6	82.0	67	67.7	0	3	248	0.00	29.776 
15:10	79.4	79.4	81.9	69	68.3	0	2	248	0.00	29.776 
15:15	79.0	79.0	81.3	69	67.9	1	4	248	0.00	29.800 
15:20	78.6	78.6	80.8	69	67.6	1	3	248	0.00	29.800 
15:25	78.5	78.5	80.8	71	68.3	0	2	248	0.00	29.800 
15:30	78.3	78.3	80.5	71	68.1	0	1	248	0.00	29.812 
15:35	78.1	78.1	80.2	72	68.3	0	2	248	0.00	29.812 
15:40	77.9	77.9	79.9	72	68.1	0	2	248	0.00	29.812 
15:45	77.9	77.9	79.9	72	68.1	1	2	248	0.00	29.812 
15:50	77.7	77.7	79.7	73	68.3	0	1	248	0.00	29.812 
15:55	77.7	77.7	79.7	73	68.3	0	0	---	0.00	29.812 
16:00	77.9	77.9	80.0	74	68.9	0	0	---	0.00	29.795 
16:05	78.1	78.1	80.3	73	68.7	0	2	248	0.00	29.795 
16:10	78.3	78.3	80.6	73	68.9	0	2	248	0.00	29.795 
16:15	78.3	78.3	80.6	73	68.9	0	2	248	0.00	29.799 
16:20	78.1	78.1	80.3	74	69.1	0	2	248	0.00	29.799 
16:25	78.1	78.1	80.3	75	69.5	0	2	248	0.00	29.799 
16:30	78.3	78.3	80.6	75	69.7	0	2	248	0.00	29.794 
16:35	78.3	78.3	80.6	75	69.7	0	1	248	0.00	29.794 
16:40	78.3	78.3	80.6	75	69.7	0	2	248	0.00	29.794 
16:45	78.1	78.1	80.3	75	69.5	0	2	248	0.00	29.786 
16:50	78.1	78.1	80.4	76	69.9	0	2	248	0.00	29.786 
16:55	78.3	78.3	80.7	76	70.1	0	1	248	0.00	29.786 
17:00	78.3	78.3	80.7	76	70.1	0	1	248	0.00	29.785 
17:05	78.3	78.3	80.7	76	70.1	0	2	248	0.00	29.785 
17:10	78.3	78.3	80.6	75	69.7	0	1	248	0.00	29.785 
17:15	78.6	78.6	81.1	74	69.6	0	3	248	0.00	29.777 
17:20	79.0	79.0	81.6	73	69.6	1	3	248	0.00	29.777 
17:25	79.6	79.6	82.6	73	70.2	0	1	248	0.00	29.777 
17:30	79.9	79.9	82.9	71	69.6	1	3	248	0.00	29.773 
17:35	79.8	79.8	82.7	71	69.5	1	3	248	0.00	29.773 
17:40	79.6	79.6	82.6	73	70.2	0	2	270	0.00	29.773 
17:45	79.4	79.4	82.3	73	70.0	0	3	270	0.00	29.775 
17:50	79.0	79.0	81.7	74	70.0	0	2	270	0.00	29.775 
17:55	78.8	78.8	81.4	74	69.8	0	2	270	0.00	29.775 
18:00	78.6	78.6	81.2	76	70.4	0	1	270	0.00	29.773 
18:05	78.6	78.6	81.2	76	70.4	0	1	270	0.00	29.773 
18:10	78.6	78.6	81.2	76	70.4	0	3	270	0.00	29.773 
18:15	78.8	78.8	81.6	77	71.0	0	1	270	0.00	29.770 
18:20	79.0	79.0	81.9	76	70.8	0	1	270	0.00	29.770 
18:25	79.0	79.0	81.8	75	70.4	0	3	270	0.00	29.770 
18:30	79.0	79.0	81.9	76	70.8	0	1	270	0.00	29.778 
18:35	79.0	79.0	81.8	75	70.4	0	1	270	0.00	29.778 
18:40	78.8	78.8	81.5	75	70.2	0	3	270	0.00	29.778 
18:45	78.6	78.6	81.2	76	70.4	0	3	270	0.00	29.779 
18:50	78.5	78.5	81.0	76	70.3	1	3	270	0.00	29.779 
18:55	78.3	78.3	80.7	77	70.5	0	1	270	0.00	29.779 
19:00	78.1	78.1	80.4	77	70.3	0	2	270	0.00	29.785 
19:05	78.1	78.1	80.4	77	70.3	0	2	270	0.00	29.785 
19:10	78.1	78.1	80.4	78	70.7	0	2	270	0.00	29.785 
19:15	78.1	78.1	80.4	78	70.7	0	2	270	0.00	29.792 
19:20	78.1	78.1	80.4	78	70.7	1	3	270	0.00	29.792 
19:25	77.9	77.9	80.1	78	70.5	1	3	270	0.00	29.792 
19:30	77.9	77.9	80.1	79	70.8	1	3	270	0.00	29.809 
19:35	77.7	77.7	79.8	79	70.7	1	3	270	0.00	29.809 
19:40	77.7	77.7	79.8	80	71.0	1	4	270	0.00	29.809 
19:45	77.6	77.6	79.6	80	70.9	2	5	292	0.00	29.803 
19:50	77.6	77.6	79.6	80	70.9	1	5	292	0.00	29.803 
19:55	77.4	77.4	79.2	80	70.7	0	2	292	0.00	29.803 
20:00	77.4	77.4	79.2	80	70.7	0	2	292	0.00	29.809 
20:05	77.4	77.4	79.2	80	70.7	1	3	292	0.00	29.809 
20:10	77.4	77.4	79.2	80	70.7	1	3	270	0.00	29.809 
20:15	77.2	77.2	78.9	80	70.5	1	4	270	0.00	29.805 
20:20	77.2	77.2	78.9	80	70.5	3	5	292	0.00	29.805 
20:25	77.0	77.0	78.5	81	70.7	2	4	270	0.00	29.805 
20:30	77.0	77.0	78.5	81	70.7	2	4	270	0.00	29.808 
20:35	76.8	76.8	78.2	81	70.5	2	4	270	0.00	29.808 
20:40	76.8	76.8	78.2	81	70.5	1	4	270	0.00	29.808 
20:45	76.7	76.7	78.0	81	70.4	1	5	270	0.00	29.794 
20:50	76.7	76.7	78.0	81	70.4	1	6	270	0.00	29.794 
20:55	76.5	76.5	77.7	82	70.6	1	3	270	0.00	29.794 
21:00	76.5	76.5	77.7	82	70.6	2	4	270	0.00	29.794 
21:05	76.3	76.3	77.2	83	70.7	1	3	270	0.00	29.794 
21:10	76.3	76.3	77.2	83	70.7	1	4	270	0.00	29.794 
21:15	76.1	76.1	76.8	84	70.9	1	4	270	0.00	29.792 
21:20	76.0	76.0	76.7	84	70.8	2	4	270	0.00	29.792 
21:25	76.0	76.0	76.7	84	70.8	0	2	270	0.00	29.792 
21:30	75.8	75.8	76.3	84	70.6	1	2	270	0.00	29.792 
21:35	75.8	75.8	76.3	84	70.6	0	2	270	0.00	29.792 
21:40	75.8	75.8	76.3	84	70.6	0	2	270	0.00	29.792 
21:45	75.8	75.8	76.2	85	71.0	0	3	270	0.00	29.790 
21:50	75.6	75.6	75.9	85	70.8	1	3	270	0.00	29.790 
21:55	75.6	75.6	75.9	85	70.8	0	2	270	0.00	29.790 
22:00	75.6	75.6	75.9	85	70.8	0	2	270	0.00	29.795 
22:05	75.6	75.6	75.9	85	70.8	0	3	270	0.00	29.795 
22:10	75.6	75.6	75.9	85	70.8	1	2	292	0.00	29.795 
22:15	75.4	75.4	75.5	85	70.6	0	2	292	0.00	29.799 
22:20	75.4	75.4	75.4	86	70.9	0	2	292	0.00	29.799 
22:25	75.4	75.4	75.4	86	70.9	0	2	292	0.00	29.799 
22:30	75.4	75.4	75.4	86	70.9	0	3	292	0.00	29.800 
22:35	75.4	75.4	75.4	86	70.9	0	1	292	0.00	29.800 
22:40	75.4	75.4	75.4	86	70.9	0	1	292	0.00	29.800 
22:45	75.4	75.4	75.4	86	70.9	0	2	292	0.00	29.801 
22:50	75.4	75.4	75.4	86	70.9	0	1	292	0.00	29.801 
22:55	75.4	75.4	75.4	86	70.9	0	1	292	0.00	29.801 
23:00	75.4	75.4	75.4	86	70.9	0	2	292	0.00	29.789 
23:05	75.4	75.4	75.3	87	71.2	0	1	292	0.00	29.789 
23:10	75.4	75.4	75.3	87	71.2	0	2	292	0.00	29.789 
23:15	75.4	75.4	75.3	87	71.2	0	1	292	0.00	29.780 
23:20	75.3	75.3	75.1	87	71.2	0	0	---	0.00	29.780 
23:25	75.3	75.3	75.1	87	71.2	0	0	---	0.00	29.780 
23:30	75.1	75.1	74.6	88	71.3	0	1	292	0.00	29.785 
23:35	75.1	75.1	74.6	88	71.3	0	0	---	0.00	29.785 
23:40	75.1	75.1	74.6	88	71.3	0	0	---	0.00	29.785 
23:45	75.1	75.1	74.6	88	71.3	0	0	---	0.00	29.781 
23:50	75.1	75.1	74.6	88	71.3	0	1	292	0.00	29.781 
23:55	75.1	75.1	74.6	88	71.3	0	1	292	0.00	29.781 

CoCoRaHS
IN-AL-39
A2 Web Hosting
Creative Commons License
GoDaddy
search engine by freefind advanced

loaded 2018-11-21 01:16:48 • last modified 2010-11-18 10:43:29
Privacy PolicyDisclaimer
• wx.awcolley.com is powered by PmWiki v.2002016 •
• all content (unless otherwise noted) © 2018 A W Colley